createdAt,value
2023-04-07T00:01:21.779Z,101575.87
2023-04-07T00:03:50.887Z,101572.71
2023-04-07T00:06:19.523Z,101575.70
2023-04-07T00:08:50.587Z,101577.77
2023-04-07T00:11:18.856Z,101577.09
2023-04-07T00:13:47.686Z,101576.56
2023-04-07T00:16:16.234Z,101577.27
2023-04-07T00:18:44.503Z,101578.32
2023-04-07T00:21:12.932Z,101578.52
2023-04-07T00:23:41.176Z,101579.38
2023-04-07T00:26:09.343Z,101577.10
2023-04-07T00:28:37.983Z,101581.48
2023-04-07T00:31:13.596Z,101588.10
2023-04-07T00:33:42.103Z,101588.97
2023-04-07T00:36:11.086Z,101590.53
2023-04-07T00:38:40.577Z,101592.46
2023-04-07T00:48:47.924Z,101613.25
2023-04-07T00:51:16.535Z,101609.40
2023-04-07T00:53:44.828Z,101610.45
2023-04-07T00:56:14.314Z,101611.16
2023-04-07T00:58:42.617Z,101611.17
2023-04-07T01:01:32.493Z,101613.45
2023-04-07T01:04:04.607Z,101619.40
2023-04-07T01:06:36.807Z,101621.48
2023-04-07T01:09:14.134Z,101622.53
2023-04-07T01:11:44.932Z,101622.54
2023-04-07T01:14:21.876Z,101622.88
2023-04-07T01:16:58.850Z,101618.70
2023-04-07T01:19:49.134Z,101617.13
2023-04-07T01:22:19.865Z,101615.38
2023-04-07T01:24:59.928Z,101614.30
2023-04-07T01:27:37.199Z,101612.37
2023-04-07T01:30:06.836Z,101617.23
2023-04-07T01:32:37.104Z,101623.15
2023-04-07T01:35:10.235Z,101622.48
2023-04-07T01:37:39.678Z,101624.75
2023-04-07T01:40:08.368Z,101628.79
2023-04-07T01:42:37.717Z,101635.95
2023-04-07T01:45:06.705Z,101635.95
2023-04-07T01:47:37.820Z,101631.92
2023-04-07T01:50:09.434Z,101635.41
2023-04-07T01:52:39.083Z,101639.45
2023-04-07T01:55:10.517Z,101642.25
2023-04-07T01:57:45.091Z,101647.49
2023-04-07T02:00:20.032Z,101644.52
2023-04-07T02:02:53.681Z,101650.28
2023-04-07T02:05:22.936Z,101649.92
2023-04-07T02:07:51.381Z,101648.35
2023-04-07T02:10:24.691Z,101653.24
2023-04-07T02:12:54.279Z,101654.63
2023-04-07T02:15:23.101Z,101653.93
2023-04-07T02:17:52.995Z,101654.98
2023-04-07T02:20:22.282Z,101658.30
2023-04-07T02:22:51.038Z,101659.70
2023-04-07T02:25:26.842Z,101663.55
2023-04-07T02:27:57.236Z,101668.12
2023-04-07T02:30:27.331Z,101670.23
2023-04-07T02:32:56.434Z,101676.52
2023-04-07T02:35:24.820Z,101676.71
2023-04-07T02:37:53.471Z,101680.20
2023-04-07T02:40:22.128Z,101678.45
2023-04-07T02:42:51.045Z,101678.82
2023-04-07T02:45:20.086Z,101680.56
2023-04-07T02:47:48.484Z,101679.52
2023-04-07T02:50:19.680Z,101678.11
2023-04-07T02:52:48.282Z,101677.25
2023-04-07T02:55:18.589Z,101678.65
2023-04-07T02:57:47.202Z,101679.86
2023-04-07T03:00:30.061Z,101683.36
2023-04-07T03:03:06.957Z,101688.24
2023-04-07T03:05:37.754Z,101686.33
2023-04-07T03:08:06.109Z,101684.58
2023-04-07T03:10:34.463Z,101683.52
2023-04-07T03:13:03.643Z,101681.44
2023-04-07T03:15:32.973Z,101684.58
2023-04-07T03:18:02.670Z,101684.58
2023-04-07T03:20:32.854Z,101683.70
2023-04-07T03:23:09.257Z,101684.38
2023-04-07T03:25:41.123Z,101685.09
2023-04-07T03:28:10.088Z,101683.16
2023-04-07T03:30:41.112Z,101686.66
2023-04-07T03:33:10.100Z,101685.27
2023-04-07T03:35:38.463Z,101687.34
2023-04-07T03:38:08.218Z,101690.85
2023-04-07T03:40:37.835Z,101695.92
2023-04-07T03:43:12.741Z,101696.63
2023-04-07T03:45:42.589Z,101698.58
2023-04-07T03:48:13.219Z,101704.68
2023-04-07T03:50:49.413Z,101707.84
2023-04-07T03:53:23.355Z,101716.59
2023-04-07T03:55:53.324Z,101724.29
2023-04-07T03:58:28.980Z,101727.45
2023-04-07T04:00:58.566Z,101730.24
2023-04-07T04:03:28.212Z,101731.65
2023-04-07T04:06:25.044Z,101737.59
2023-04-07T04:08:54.084Z,101739.70
2023-04-07T04:11:22.711Z,101744.08
2023-04-07T04:14:01.957Z,101750.71
2023-04-07T04:16:31.985Z,101757.54
2023-04-07T04:19:04.041Z,101762.42
2023-04-07T04:21:43.914Z,101767.33
2023-04-07T04:24:12.864Z,101772.41
2023-04-07T04:26:41.636Z,101779.21
2023-04-07T04:29:13.746Z,101785.35
2023-04-07T04:31:43.277Z,101790.41
2023-04-07T04:34:17.837Z,101791.12
2023-04-07T04:36:49.370Z,101794.61
2023-04-07T04:39:18.873Z,101793.39
2023-04-07T04:41:47.847Z,101801.96
2023-04-07T04:44:16.185Z,101801.61
2023-04-07T04:46:47.622Z,101806.34
2023-04-07T04:49:17.022Z,101804.59
2023-04-07T04:51:46.063Z,101805.98
2023-04-07T04:54:20.974Z,101807.38
2023-04-07T04:56:50.794Z,101809.30
2023-04-07T04:59:19.141Z,101816.64
2023-04-07T05:02:13.933Z,101818.39
2023-04-07T05:04:42.767Z,101819.10
2023-04-07T05:07:24.778Z,101820.14
2023-04-07T05:09:57.379Z,101818.05
2023-04-07T05:12:25.914Z,101820.83
2023-04-07T05:15:00.929Z,101818.03
2023-04-07T05:17:31.472Z,101820.13
2023-04-07T05:20:01.103Z,101822.58
2023-04-07T05:22:41.677Z,101825.72
2023-04-07T05:25:16.548Z,101821.34
2023-04-07T05:27:46.019Z,101819.42
2023-04-07T05:30:19.884Z,101816.27
2023-04-07T05:32:49.801Z,101811.20
2023-04-07T05:35:31.709Z,101814.00
2023-04-07T05:38:06.256Z,101817.14
2023-04-07T05:40:37.287Z,101814.85
2023-04-07T05:43:06.229Z,101809.23
2023-04-07T05:53:15.581Z,101823.00
2023-04-07T05:55:50.252Z,101824.25
2023-04-07T05:58:42.788Z,101816.70
2023-04-07T06:01:16.003Z,101811.96
2023-04-07T06:03:44.864Z,101804.59
2023-04-07T06:06:17.572Z,101799.52
2023-04-07T06:08:48.778Z,101797.39
2023-04-07T06:11:18.078Z,101792.67
2023-04-07T06:13:46.949Z,101785.83
2023-04-07T06:16:18.238Z,101779.69
2023-04-07T06:18:52.541Z,101780.56
2023-04-07T06:21:20.921Z,101779.69
2023-04-07T06:23:57.483Z,101778.13
2023-04-07T06:26:26.279Z,101775.65
2023-04-07T06:28:57.049Z,101772.48
2023-04-07T06:31:27.337Z,101772.48
2023-04-07T06:33:56.537Z,101772.83
2023-04-07T06:36:24.868Z,101771.78
2023-04-07T06:38:57.502Z,101761.63
2023-04-07T06:41:26.337Z,101759.86
2023-04-07T06:43:59.948Z,101758.27
2023-04-07T06:46:28.774Z,101757.73
2023-04-07T06:49:02.639Z,101753.02
2023-04-07T06:51:32.701Z,101748.27
2023-04-07T06:54:01.113Z,101748.08
2023-04-07T06:56:30.340Z,101744.39
2023-04-07T06:58:58.679Z,101745.27
2023-04-07T07:01:28.089Z,101744.05
2023-04-07T07:03:57.429Z,101741.92
2023-04-07T07:06:26.947Z,101741.92
2023-04-07T07:08:55.414Z,101738.41
2023-04-07T07:11:27.469Z,101739.98
2023-04-07T07:13:56.269Z,101738.55
2023-04-07T07:16:24.740Z,101739.62
2023-04-07T07:18:56.245Z,101737.70
2023-04-07T07:21:24.476Z,101734.05
2023-04-07T07:23:53.020Z,101731.23
2023-04-07T07:26:22.325Z,101728.23
2023-04-07T07:28:50.600Z,101728.40
2023-04-07T07:31:19.459Z,101722.77
2023-04-07T07:33:50.643Z,101727.33
2023-04-07T07:36:19.125Z,101723.44
2023-04-07T07:38:49.682Z,101723.95
2023-04-07T07:41:17.975Z,101718.86
2023-04-07T07:43:46.854Z,101717.27
2023-04-07T07:46:15.766Z,101719.00
2023-04-07T07:48:50.364Z,101719.86
2023-04-07T07:51:18.986Z,101716.31
2023-04-07T07:53:47.531Z,101718.36
2023-04-07T07:56:16.253Z,101716.58
2023-04-07T07:58:44.592Z,101717.93
2023-04-07T08:01:14.723Z,101719.32
2023-04-07T08:03:44.667Z,101722.80
2023-04-07T08:06:38.847Z,101722.62
2023-04-07T08:09:08.087Z,101726.80
2023-04-07T08:11:36.430Z,101723.46
2023-04-07T08:14:08.647Z,101726.77
2023-04-07T08:16:38.786Z,101726.70
2023-04-07T08:19:07.160Z,101726.34
2023-04-07T08:21:35.564Z,101719.70
2023-04-07T08:24:03.919Z,101718.98
2023-04-07T08:26:32.369Z,101720.01
2023-04-07T08:29:03.279Z,101712.78
2023-04-07T08:31:31.936Z,101715.05
2023-04-07T08:34:00.238Z,101709.58
2023-04-07T08:36:29.375Z,101709.00
2023-04-07T08:38:59.331Z,101703.02
2023-04-07T08:41:39.440Z,101702.52
2023-04-07T08:44:09.665Z,101696.77
2023-04-07T08:46:40.133Z,101695.59
2023-04-07T08:49:10.485Z,101691.75
2023-04-07T08:51:41.999Z,101695.77
2023-04-07T08:54:11.960Z,101700.66
2023-04-07T08:56:41.517Z,101700.83
2023-04-07T08:59:12.010Z,101700.63
2023-04-07T09:01:41.811Z,101705.15
2023-04-07T09:04:11.406Z,101710.89
2023-04-07T09:06:39.986Z,101705.98
2023-04-07T09:09:08.277Z,101709.02
2023-04-07T09:11:38.415Z,101710.27
2023-04-07T09:14:06.784Z,101700.85
2023-04-07T09:16:35.120Z,101701.58
2023-04-07T09:19:03.436Z,101701.05
2023-04-07T09:21:52.760Z,101705.08
2023-04-07T09:24:27.838Z,101704.20
2023-04-07T09:27:29.031Z,101701.76
2023-04-07T09:29:58.034Z,101699.48
2023-04-07T09:32:39.011Z,101691.23
2023-04-07T09:35:07.954Z,101695.61
2023-04-07T09:37:36.324Z,101691.33
2023-04-07T09:40:05.185Z,101693.73
2023-04-07T09:42:34.980Z,101694.90
2023-04-07T09:45:03.753Z,101696.73
2023-04-07T09:47:32.986Z,101702.27
2023-04-07T09:50:07.193Z,101704.32
2023-04-07T09:52:49.599Z,101703.48
2023-04-07T09:55:19.537Z,101704.05
2023-04-07T09:57:51.485Z,101698.30
2023-04-07T10:00:21.842Z,101695.53
2023-04-07T10:02:54.549Z,101694.64
2023-04-07T10:05:22.949Z,101699.34
2023-04-07T10:07:51.797Z,101701.41
2023-04-07T10:10:20.257Z,101702.45
2023-04-07T10:12:48.653Z,101700.17
2023-04-07T10:17:18.979Z,101714.87
2023-04-07T10:19:47.532Z,101708.22
2023-04-07T10:22:16.192Z,101707.52
2023-04-07T10:24:59.031Z,101711.87
2023-04-07T10:27:32.723Z,101722.14
2023-04-07T10:30:01.535Z,101727.91
2023-04-07T10:40:20.032Z,101760.50
2023-04-07T10:42:48.541Z,101761.18
2023-04-07T10:45:16.866Z,101760.79
2023-04-07T10:47:58.358Z,101762.32
2023-04-07T10:50:28.724Z,101770.33
2023-04-07T10:53:10.417Z,101770.25
2023-04-07T10:55:45.731Z,101777.42
2023-04-07T10:58:24.611Z,101777.59
2023-04-07T11:01:11.977Z,101778.02
2023-04-07T11:03:53.923Z,101781.39
2023-04-07T11:06:23.119Z,101777.19
2023-04-07T11:08:51.770Z,101771.92
2023-04-07T11:11:40.918Z,101769.09
2023-04-07T11:14:11.409Z,101768.02
2023-04-07T11:16:42.008Z,101772.92
2023-04-07T11:19:12.461Z,101779.91
2023-04-07T11:21:40.878Z,101777.95
2023-04-07T11:24:09.904Z,101779.32
2023-04-07T11:26:42.434Z,101788.42
2023-04-07T11:29:12.399Z,101797.61
2023-04-07T11:31:41.806Z,101804.25
2023-04-07T11:34:11.406Z,101818.25
2023-04-07T11:36:40.776Z,101832.36
2023-04-07T11:39:22.283Z,101837.52
2023-04-07T11:41:51.376Z,101845.02
2023-04-07T11:44:20.243Z,101846.38
2023-04-07T11:46:59.747Z,101855.31
2023-04-07T11:49:29.132Z,101859.48
2023-04-07T11:51:58.912Z,101862.05
2023-04-07T11:54:27.418Z,101874.95
2023-04-07T11:56:56.717Z,101876.46
2023-04-07T11:59:25.541Z,101877.80
2023-04-07T12:01:56.969Z,101880.70
2023-04-07T12:04:26.871Z,101895.83
2023-04-07T12:06:55.630Z,101904.85
2023-04-07T12:09:32.613Z,101925.10
2023-04-07T12:12:01.079Z,101939.51
2023-04-07T12:14:29.672Z,101955.02
2023-04-07T12:16:59.108Z,101963.93
2023-04-07T12:19:28.409Z,101970.86
2023-04-07T12:21:58.335Z,101982.98
2023-04-07T12:24:27.498Z,101981.48
2023-04-07T12:26:56.401Z,101975.60
2023-04-07T12:29:25.641Z,101978.58
2023-04-07T12:31:54.152Z,101987.27
2023-04-07T12:34:24.229Z,102000.71
2023-04-07T12:36:53.005Z,102004.38
2023-04-07T12:39:21.705Z,102000.86
2023-04-07T12:41:53.351Z,101991.90
2023-04-07T12:44:21.788Z,101986.92
2023-04-07T12:46:50.582Z,101985.40
2023-04-07T12:49:19.404Z,101975.55
2023-04-07T12:51:47.716Z,101958.35
2023-04-07T12:54:15.929Z,101948.14
2023-04-07T12:56:44.112Z,101941.36
2023-04-07T12:59:14.231Z,101936.27
2023-04-07T13:01:43.363Z,101939.49
2023-04-07T13:04:11.948Z,101945.56
2023-04-07T13:06:42.764Z,101944.93
2023-04-07T13:09:11.331Z,101945.88
2023-04-07T13:11:39.696Z,101937.51
2023-04-07T13:14:08.012Z,101933.77
2023-04-07T13:16:36.455Z,101925.73
2023-04-07T13:19:05.590Z,101924.25
2023-04-07T13:21:46.183Z,101910.54
2023-04-07T13:24:16.615Z,101903.34
2023-04-07T13:26:44.907Z,101901.77
2023-04-07T13:29:13.262Z,101898.77
2023-04-07T13:31:41.630Z,101894.52
2023-04-07T13:34:10.139Z,101879.44
2023-04-07T13:36:38.470Z,101871.08
2023-04-07T13:39:07.277Z,101869.73
2023-04-07T13:41:36.221Z,101865.27
2023-04-07T13:44:05.164Z,101855.96
2023-04-07T13:46:33.733Z,101847.09
2023-04-07T13:49:02.500Z,101838.77
2023-04-07T13:51:30.823Z,101829.88
2023-04-07T13:53:59.121Z,101820.34
2023-04-07T13:56:27.490Z,101818.23
2023-04-07T13:58:55.681Z,101819.38
2023-04-07T14:01:24.589Z,101827.31
2023-04-07T14:03:57.478Z,101835.59
2023-04-07T14:06:27.978Z,101835.98
2023-04-07T14:08:56.705Z,101832.84
2023-04-07T14:11:25.066Z,101826.42
2023-04-07T14:13:58.886Z,101814.73
2023-04-07T14:16:28.951Z,101804.41
2023-04-07T14:18:57.456Z,101798.72
2023-04-07T14:21:28.101Z,101790.11
2023-04-07T14:23:56.609Z,101785.70
2023-04-07T14:26:25.152Z,101782.17
2023-04-07T14:28:54.088Z,101769.48
2023-04-07T14:31:22.432Z,101767.55
2023-04-07T14:33:51.245Z,101759.38
2023-04-07T14:36:19.893Z,101755.54
2023-04-07T14:38:48.127Z,101759.04
2023-04-07T14:41:16.779Z,101759.88
2023-04-07T14:43:45.338Z,101759.44
2023-04-07T14:46:15.414Z,101755.91
2023-04-07T14:48:46.334Z,101762.93
2023-04-07T14:51:14.702Z,101762.25
2023-04-07T14:53:46.028Z,101760.90
2023-04-07T14:56:14.477Z,101752.39
2023-04-07T14:58:46.640Z,101748.62
2023-04-07T15:01:15.362Z,101743.91
2023-04-07T15:03:45.197Z,101741.00
2023-04-07T15:06:14.096Z,101739.88
2023-04-07T15:08:43.880Z,101736.97
2023-04-07T15:11:13.027Z,101737.94
2023-04-07T15:13:41.299Z,101736.44
2023-04-07T15:16:14.092Z,101736.84
2023-04-07T15:18:44.816Z,101733.77
2023-04-07T15:21:13.693Z,101737.36
2023-04-07T15:23:42.209Z,101732.67
2023-04-07T15:26:10.866Z,101732.92
2023-04-07T15:36:22.615Z,101759.88
2023-04-07T15:38:51.391Z,101753.81
2023-04-07T15:41:19.626Z,101748.97
2023-04-07T15:43:48.201Z,101745.33
2023-04-07T15:46:16.945Z,101746.10
2023-04-07T15:48:48.185Z,101748.11
2023-04-07T15:51:16.475Z,101748.93
2023-04-07T15:53:46.690Z,101749.23
2023-04-07T15:56:15.032Z,101746.73
2023-04-07T15:58:45.414Z,101745.47
2023-04-07T16:01:13.654Z,101743.28
2023-04-07T16:03:43.067Z,101744.39
2023-04-07T16:06:11.411Z,101745.52
2023-04-07T16:08:39.590Z,101747.14
2023-04-07T16:11:07.774Z,101747.38
2023-04-07T16:13:36.473Z,101747.98
2023-04-07T16:16:08.760Z,101750.73
2023-04-07T16:18:39.751Z,101750.69
2023-04-07T16:21:08.880Z,101748.20
2023-04-07T16:23:45.421Z,101747.28
2023-04-07T16:26:14.087Z,101747.44
2023-04-07T16:28:44.499Z,101750.19
2023-04-07T16:31:12.814Z,101753.09
2023-04-07T16:33:43.466Z,101759.16
2023-04-07T16:36:14.032Z,101760.13
2023-04-07T16:38:45.082Z,101762.67
2023-04-07T16:41:13.647Z,101766.27
2023-04-07T16:43:43.837Z,101772.33
2023-04-07T16:46:12.286Z,101776.29
2023-04-07T16:48:40.683Z,101778.84
2023-04-07T16:51:09.505Z,101782.08
2023-04-07T16:53:38.185Z,101785.47
2023-04-07T16:56:06.830Z,101791.33
2023-04-07T16:58:35.078Z,101792.98
2023-04-07T17:01:03.321Z,101798.84
2023-04-07T17:03:37.508Z,101804.31
2023-04-07T17:06:06.294Z,101811.55
2023-04-07T17:08:36.237Z,101812.95
2023-04-07T17:11:09.004Z,101818.29
2023-04-07T17:13:37.929Z,101823.78
2023-04-07T17:16:11.176Z,101827.84
2023-04-07T17:18:40.273Z,101835.94
2023-04-07T17:21:09.200Z,101836.30
2023-04-07T17:23:42.967Z,101840.35
2023-04-07T17:26:11.345Z,101841.42
2023-04-07T17:28:39.985Z,101842.14
2023-04-07T17:31:15.335Z,101844.99
2023-04-07T17:33:44.398Z,101850.65
2023-04-07T17:36:13.433Z,101855.26
2023-04-07T17:38:47.722Z,101864.04
2023-04-07T17:41:16.813Z,101869.98
2023-04-07T17:43:45.992Z,101872.21
2023-04-07T17:46:14.261Z,101885.91
2023-04-07T17:48:44.957Z,101893.08
2023-04-07T17:51:14.514Z,101899.92
2023-04-07T17:53:43.102Z,101903.98
2023-04-07T17:56:12.940Z,101910.27
2023-04-07T17:58:42.158Z,101913.05
2023-04-07T18:01:11.223Z,101916.54
2023-04-07T18:03:41.219Z,101922.52
2023-04-07T18:06:10.036Z,101927.94
2023-04-07T18:08:38.964Z,101928.80
2023-04-07T18:11:08.042Z,101933.56
2023-04-07T18:13:38.364Z,101932.38
2023-04-07T18:16:09.666Z,101927.48
2023-04-07T18:18:43.874Z,101933.13
2023-04-07T18:21:12.327Z,101939.81
2023-04-07T18:23:41.190Z,101943.74
2023-04-07T18:26:10.047Z,101943.07
2023-04-07T18:28:38.496Z,101949.11
2023-04-07T18:31:09.560Z,101950.73
2023-04-07T18:33:40.657Z,101956.04
2023-04-07T18:36:12.101Z,101957.83
2023-04-07T18:38:46.496Z,101959.41
2023-04-07T18:41:27.253Z,101964.68
2023-04-07T18:43:57.350Z,101976.09
2023-04-07T18:46:29.642Z,101980.48
2023-04-07T18:57:33.978Z,102011.33
2023-04-07T19:00:02.291Z,102010.33
2023-04-07T19:02:33.179Z,102008.95
2023-04-07T19:05:03.916Z,102006.88
2023-04-07T19:07:32.217Z,102008.30
2023-04-07T19:10:01.038Z,102012.58
2023-04-07T19:12:30.064Z,102016.48
2023-04-07T19:15:05.158Z,102019.88
2023-04-07T19:17:34.508Z,102017.98
2023-04-07T19:20:03.979Z,102019.75
2023-04-07T19:22:32.725Z,102026.27
2023-04-07T19:25:01.694Z,102023.30
2023-04-07T19:27:32.821Z,102025.60
2023-04-07T19:30:01.437Z,102028.05
2023-04-07T19:32:30.530Z,102034.91
2023-04-07T19:34:58.907Z,102038.41
2023-04-07T19:37:27.109Z,102040.34
2023-04-07T19:40:02.352Z,102042.27
2023-04-07T19:42:32.063Z,102049.14
2023-04-07T19:45:02.355Z,102052.30
2023-04-07T19:47:32.804Z,102057.94
2023-04-07T19:50:02.232Z,102057.75
2023-04-07T19:52:32.376Z,102057.93
2023-04-07T19:55:02.706Z,102060.40
2023-04-07T19:57:31.719Z,102062.69
2023-04-07T20:00:09.209Z,102068.67
2023-04-07T20:02:40.127Z,102067.25
2023-04-07T20:05:10.094Z,102067.80
2023-04-07T20:07:39.909Z,102064.81
2023-04-07T20:10:09.331Z,102067.98
2023-04-07T20:12:38.934Z,102070.30
2023-04-07T20:15:08.136Z,102074.54
2023-04-07T20:17:38.066Z,102078.60
2023-04-07T20:20:07.655Z,102088.80
2023-04-07T20:22:37.475Z,102093.91
2023-04-07T20:25:07.630Z,102095.20
2023-04-07T20:27:45.682Z,102104.16
2023-04-07T20:30:14.532Z,102104.16
2023-04-07T20:32:46.256Z,102108.73
2023-04-07T20:35:17.772Z,102110.48
2023-04-07T20:37:46.303Z,102111.22
2023-04-07T20:40:20.001Z,102114.23
2023-04-07T20:42:50.096Z,102118.30
2023-04-07T20:45:18.327Z,102112.87
2023-04-07T20:47:47.229Z,102109.90
2023-04-07T20:50:16.158Z,102109.38
2023-04-07T20:52:50.905Z,102110.27
2023-04-07T20:55:19.178Z,102108.02
2023-04-07T20:57:47.584Z,102103.33
2023-04-07T21:00:17.669Z,102100.91
2023-04-07T21:02:48.967Z,102099.37
2023-04-07T21:05:17.626Z,102095.00
2023-04-07T21:07:47.680Z,102094.34
2023-04-07T21:10:16.681Z,102095.98
2023-04-07T21:12:45.002Z,102097.27
2023-04-07T21:15:18.308Z,102102.20
2023-04-07T21:17:47.078Z,102106.09
2023-04-07T21:20:16.011Z,102109.63
2023-04-07T21:22:44.671Z,102115.60
2023-04-07T21:25:12.999Z,102116.31
2023-04-07T21:27:41.505Z,102115.45
2023-04-07T21:30:10.303Z,102124.94
2023-04-07T21:32:38.981Z,102131.09
2023-04-07T21:35:09.396Z,102136.02
2023-04-07T21:37:37.711Z,102137.42
2023-04-07T21:40:09.302Z,102139.54
2023-04-07T21:42:38.729Z,102142.00
2023-04-07T21:45:08.042Z,102147.63
2023-04-07T21:47:38.325Z,102152.73
2023-04-07T21:50:07.608Z,102153.80
2023-04-07T21:52:37.040Z,102159.23
2023-04-07T22:02:39.521Z,102184.52
2023-04-07T22:05:16.362Z,102189.63
2023-04-07T22:07:45.992Z,102187.52
2023-04-07T22:10:14.483Z,102185.41
2023-04-07T22:12:45.952Z,102183.33
2023-04-07T22:15:14.219Z,102184.73
2023-04-07T22:17:42.620Z,102188.09
2023-04-07T22:20:12.734Z,102186.70
2023-04-07T22:22:41.391Z,102190.23
2023-04-07T22:25:09.816Z,102189.52
2023-04-07T22:27:39.195Z,102187.59
2023-04-07T22:30:10.277Z,102190.05
2023-04-07T22:35:06.332Z,102210.80
2023-04-07T22:37:34.578Z,102215.20
2023-04-07T22:40:03.880Z,102215.02
2023-04-07T22:42:32.586Z,102213.83
2023-04-07T22:45:01.947Z,102213.30
2023-04-07T22:47:30.722Z,102214.02
2023-04-07T22:49:59.077Z,102208.58
2023-04-07T22:52:27.613Z,102204.57
2023-04-07T22:54:58.013Z,102201.97
2023-04-07T22:57:26.520Z,102201.97
2023-04-07T22:59:54.710Z,102199.70
2023-04-07T23:02:29.689Z,102196.89
2023-04-07T23:04:58.703Z,102201.63
2023-04-07T23:07:27.271Z,102201.63
2023-04-07T23:09:59.523Z,102202.83
2023-04-07T23:12:28.656Z,102206.00
2023-04-07T23:14:56.961Z,102208.46
2023-04-07T23:17:26.969Z,102210.92
2023-04-07T23:19:55.365Z,102213.90
2023-04-07T23:22:23.862Z,102221.79
2023-04-07T23:24:53.846Z,102226.02
2023-04-07T23:27:22.026Z,102229.52
2023-04-07T23:29:51.927Z,102233.02
2023-04-07T23:32:21.849Z,102230.74
2023-04-07T23:34:50.234Z,102236.02
2023-04-07T23:37:18.431Z,102233.55
2023-04-07T23:39:46.760Z,102236.19
2023-04-07T23:42:15.060Z,102241.44
2023-04-07T23:44:43.242Z,102244.59
2023-04-07T23:47:11.443Z,102247.91
2023-04-07T23:49:39.628Z,102251.43
2023-04-07T23:52:07.968Z,102254.40
2023-04-07T23:54:36.648Z,102257.92
2023-04-07T23:57:05.732Z,102261.09
2023-04-07T23:59:34.396Z,102263.55
